sensor_id;sensor_type;location;lat;lon;timestamp;P1;durP1;ratioP1;P2;durP2;ratioP2
37169;SDS011;23062;13.952;100.608;2023-04-24T00:02:21;42.00;;;32.00;;
37169;SDS011;23062;13.952;100.608;2023-04-24T00:06:48;42.00;;;33.00;;
37169;SDS011;23062;13.952;100.608;2023-04-24T00:11:15;48.00;;;32.67;;
37169;SDS011;23062;13.952;100.608;2023-04-24T00:15:42;45.00;;;35.00;;
37169;SDS011;23062;13.952;100.608;2023-04-24T00:20:09;42.00;;;32.00;;
37169;SDS011;23062;13.952;100.608;2023-04-24T00:24:35;42.00;;;33.00;;
37169;SDS011;23062;13.952;100.608;2023-04-24T00:29:01;52.00;;;39.00;;
37169;SDS011;23062;13.952;100.608;2023-04-24T00:33:30;47.00;;;34.00;;
37169;SDS011;23062;13.952;100.608;2023-04-24T00:37:55;40.00;;;32.00;;
37169;SDS011;23062;13.952;100.608;2023-04-24T00:42:21;41.00;;;32.00;;
37169;SDS011;23062;13.952;100.608;2023-04-24T00:46:47;44.00;;;34.00;;
37169;SDS011;23062;13.952;100.608;2023-04-24T00:51:17;43.00;;;33.00;;
37169;SDS011;23062;13.952;100.608;2023-04-24T00:55:43;46.00;;;36.00;;
37169;SDS011;23062;13.952;100.608;2023-04-24T01:00:10;46.00;;;35.00;;
37169;SDS011;23062;13.952;100.608;2023-04-24T01:04:35;46.00;;;36.00;;
37169;SDS011;23062;13.952;100.608;2023-04-24T01:09:03;48.00;;;36.00;;
37169;SDS011;23062;13.952;100.608;2023-04-24T01:13:31;43.00;;;34.00;;
37169;SDS011;23062;13.952;100.608;2023-04-24T01:17:57;48.00;;;37.00;;
37169;SDS011;23062;13.952;100.608;2023-04-24T01:22:23;47.00;;;37.00;;
37169;SDS011;23062;13.952;100.608;2023-04-24T01:26:53;46.00;;;36.00;;
37169;SDS011;23062;13.952;100.608;2023-04-24T01:31:21;47.00;;;35.00;;
37169;SDS011;23062;13.952;100.608;2023-04-24T01:35:50;44.00;;;33.00;;
37169;SDS011;23062;13.952;100.608;2023-04-24T01:40:14;49.00;;;37.00;;
37169;SDS011;23062;13.952;100.608;2023-04-24T01:44:40;45.00;;;35.00;;
37169;SDS011;23062;13.952;100.608;2023-04-24T01:49:07;47.00;;;35.00;;
37169;SDS011;23062;13.952;100.608;2023-04-24T01:53:35;47.00;;;35.00;;
37169;SDS011;23062;13.952;100.608;2023-04-24T01:58:08;38.00;;;30.00;;
37169;SDS011;23062;13.952;100.608;2023-04-24T02:02:34;44.00;;;32.00;;
37169;SDS011;23062;13.952;100.608;2023-04-24T02:07:08;39.00;;;31.00;;
37169;SDS011;23062;13.952;100.608;2023-04-24T02:11:34;38.00;;;30.00;;
37169;SDS011;23062;13.952;100.608;2023-04-24T02:15:59;37.00;;;29.00;;
37169;SDS011;23062;13.952;100.608;2023-04-24T02:20:28;44.00;;;33.00;;
37169;SDS011;23062;13.952;100.608;2023-04-24T02:24:58;40.00;;;31.00;;
37169;SDS011;23062;13.952;100.608;2023-04-24T02:29:26;38.00;;;29.00;;
37169;SDS011;23062;13.952;100.608;2023-04-24T02:33:53;35.00;;;26.00;;
37169;SDS011;23062;13.952;100.608;2023-04-24T02:38:22;35.00;;;27.00;;
37169;SDS011;23062;13.952;100.608;2023-04-24T02:42:48;36.00;;;27.00;;
37169;SDS011;23062;13.952;100.608;2023-04-24T02:47:16;33.00;;;25.00;;
37169;SDS011;23062;13.952;100.608;2023-04-24T02:51:45;31.00;;;24.00;;
37169;SDS011;23062;13.952;100.608;2023-04-24T02:56:11;31.00;;;24.00;;
37169;SDS011;23062;13.952;100.608;2023-04-24T03:00:45;34.00;;;26.00;;
37169;SDS011;23062;13.952;100.608;2023-04-24T03:05:12;30.00;;;23.00;;
37169;SDS011;23062;13.952;100.608;2023-04-24T03:09:39;31.00;;;24.00;;
37169;SDS011;23062;13.952;100.608;2023-04-24T03:14:05;35.00;;;22.53;;
37169;SDS011;23062;13.952;100.608;2023-04-24T03:18:31;33.00;;;24.00;;
37169;SDS011;23062;13.952;100.608;2023-04-24T03:22:57;31.00;;;24.00;;
37169;SDS011;23062;13.952;100.608;2023-04-24T03:27:22;30.00;;;23.00;;
37169;SDS011;23062;13.952;100.608;2023-04-24T03:31:48;33.00;;;25.00;;
37169;SDS011;23062;13.952;100.608;2023-04-24T03:36:16;32.00;;;25.00;;
37169;SDS011;23062;13.952;100.608;2023-04-24T03:40:45;29.00;;;23.00;;
37169;SDS011;23062;13.952;100.608;2023-04-24T03:45:10;34.00;;;27.00;;
37169;SDS011;23062;13.952;100.608;2023-04-24T03:49:37;29.00;;;22.00;;
37169;SDS011;23062;13.952;100.608;2023-04-24T03:54:02;31.00;;;24.00;;
37169;SDS011;23062;13.952;100.608;2023-04-24T03:58:29;31.00;;;24.00;;
37169;SDS011;23062;13.952;100.608;2023-04-24T04:02:54;33.00;;;26.00;;
37169;SDS011;23062;13.952;100.608;2023-04-24T04:07:23;33.00;;;24.00;;
37169;SDS011;23062;13.952;100.608;2023-04-24T04:11:49;30.00;;;23.00;;
37169;SDS011;23062;13.952;100.608;2023-04-24T04:16:15;34.00;;;25.00;;
37169;SDS011;23062;13.952;100.608;2023-04-24T04:20:41;30.00;;;23.00;;
37169;SDS011;23062;13.952;100.608;2023-04-24T04:25:06;34.00;;;26.00;;
37169;SDS011;23062;13.952;100.608;2023-04-24T04:29:39;31.00;;;22.00;;
37169;SDS011;23062;13.952;100.608;2023-04-24T04:34:08;27.00;;;21.00;;
37169;SDS011;23062;13.952;100.608;2023-04-24T04:38:40;34.00;;;25.00;;
37169;SDS011;23062;13.952;100.608;2023-04-24T04:43:07;29.00;;;21.00;;
37169;SDS011;23062;13.952;100.608;2023-04-24T04:47:34;29.00;;;22.00;;
37169;SDS011;23062;13.952;100.608;2023-04-24T04:52:02;32.00;;;24.00;;
37169;SDS011;23062;13.952;100.608;2023-04-24T04:56:28;30.00;;;23.00;;
37169;SDS011;23062;13.952;100.608;2023-04-24T05:00:55;33.00;;;24.00;;
37169;SDS011;23062;13.952;100.608;2023-04-24T05:05:20;28.00;;;21.00;;
37169;SDS011;23062;13.952;100.608;2023-04-24T05:09:46;30.00;;;22.00;;
37169;SDS011;23062;13.952;100.608;2023-04-24T05:14:12;33.00;;;24.00;;
37169;SDS011;23062;13.952;100.608;2023-04-24T05:18:39;34.00;;;26.00;;
37169;SDS011;23062;13.952;100.608;2023-04-24T05:23:05;29.00;;;23.00;;
37169;SDS011;23062;13.952;100.608;2023-04-24T05:27:32;30.00;;;23.00;;
37169;SDS011;23062;13.952;100.608;2023-04-24T05:32:00;31.00;;;24.00;;
37169;SDS011;23062;13.952;100.608;2023-04-24T05:36:25;30.00;;;23.00;;
37169;SDS011;23062;13.952;100.608;2023-04-24T05:40:55;30.00;;;23.00;;
37169;SDS011;23062;13.952;100.608;2023-04-24T05:45:23;31.00;;;24.00;;
37169;SDS011;23062;13.952;100.608;2023-04-24T05:49:48;36.00;;;26.00;;
37169;SDS011;23062;13.952;100.608;2023-04-24T05:54:14;35.00;;;26.00;;
37169;SDS011;23062;13.952;100.608;2023-04-24T05:58:40;36.00;;;27.00;;
37169;SDS011;23062;13.952;100.608;2023-04-24T06:03:06;38.00;;;28.00;;
37169;SDS011;23062;13.952;100.608;2023-04-24T06:07:35;33.00;;;26.00;;
37169;SDS011;23062;13.952;100.608;2023-04-24T06:12:00;32.00;;;24.00;;
37169;SDS011;23062;13.952;100.608;2023-04-24T06:16:27;37.00;;;28.00;;
37169;SDS011;23062;13.952;100.608;2023-04-24T06:20:54;37.00;;;27.00;;
37169;SDS011;23062;13.952;100.608;2023-04-24T06:25:19;36.00;;;27.00;;
37169;SDS011;23062;13.952;100.608;2023-04-24T06:29:45;36.00;;;26.00;;
37169;SDS011;23062;13.952;100.608;2023-04-24T06:34:18;37.00;;;27.00;;
37169;SDS011;23062;13.952;100.608;2023-04-24T06:38:47;39.00;;;29.00;;
37169;SDS011;23062;13.952;100.608;2023-04-24T06:43:19;37.00;;;29.00;;
37169;SDS011;23062;13.952;100.608;2023-04-24T06:47:46;39.00;;;29.00;;
37169;SDS011;23062;13.952;100.608;2023-04-24T06:52:12;37.00;;;27.00;;
37169;SDS011;23062;13.952;100.608;2023-04-24T06:56:38;36.00;;;28.00;;
37169;SDS011;23062;13.952;100.608;2023-04-24T07:01:06;34.00;;;26.00;;
37169;SDS011;23062;13.952;100.608;2023-04-24T07:05:31;36.00;;;28.00;;
37169;SDS011;23062;13.952;100.608;2023-04-24T07:09:57;41.00;;;26.87;;
37169;SDS011;23062;13.952;100.608;2023-04-24T07:14:23;38.00;;;27.00;;
37169;SDS011;23062;13.952;100.608;2023-04-24T07:18:52;38.00;;;29.00;;
37169;SDS011;23062;13.952;100.608;2023-04-24T07:23:17;41.00;;;30.00;;
37169;SDS011;23062;13.952;100.608;2023-04-24T07:27:43;37.00;;;28.00;;
37169;SDS011;23062;13.952;100.608;2023-04-24T07:32:09;41.00;;;30.00;;
37169;SDS011;23062;13.952;100.608;2023-04-24T07:36:35;43.00;;;32.00;;
37169;SDS011;23062;13.952;100.608;2023-04-24T07:41:01;40.00;;;30.00;;
37169;SDS011;23062;13.952;100.608;2023-04-24T07:45:27;41.00;;;31.00;;
37169;SDS011;23062;13.952;100.608;2023-04-24T07:49:57;41.00;;;28.93;;
37169;SDS011;23062;13.952;100.608;2023-04-24T07:54:30;38.00;;;30.00;;
37169;SDS011;23062;13.952;100.608;2023-04-24T07:58:56;44.00;;;32.00;;
37169;SDS011;23062;13.952;100.608;2023-04-24T08:03:23;39.00;;;30.00;;
37169;SDS011;23062;13.952;100.608;2023-04-24T08:07:49;36.00;;;27.00;;
37169;SDS011;23062;13.952;100.608;2023-04-24T08:12:15;42.00;;;33.00;;
37169;SDS011;23062;13.952;100.608;2023-04-24T08:16:41;42.00;;;31.00;;
37169;SDS011;23062;13.952;100.608;2023-04-24T08:21:07;41.00;;;31.00;;
37169;SDS011;23062;13.952;100.608;2023-04-24T08:25:35;38.00;;;29.00;;
37169;SDS011;23062;13.952;100.608;2023-04-24T08:30:07;42.00;;;32.00;;
37169;SDS011;23062;13.952;100.608;2023-04-24T08:34:34;38.00;;;28.00;;
37169;SDS011;23062;13.952;100.608;2023-04-24T08:39:03;38.00;;;28.00;;
37169;SDS011;23062;13.952;100.608;2023-04-24T08:43:37;37.00;;;29.00;;
37169;SDS011;23062;13.952;100.608;2023-04-24T08:48:07;39.00;;;28.00;;
37169;SDS011;23062;13.952;100.608;2023-04-24T08:52:33;41.00;;;30.00;;
37169;SDS011;23062;13.952;100.608;2023-04-24T08:57:00;39.00;;;29.00;;
37169;SDS011;23062;13.952;100.608;2023-04-24T09:01:33;42.00;;;31.00;;
37169;SDS011;23062;13.952;100.608;2023-04-24T09:06:05;38.00;;;30.00;;
37169;SDS011;23062;13.952;100.608;2023-04-24T09:10:33;40.00;;;31.00;;
37169;SDS011;23062;13.952;100.608;2023-04-24T09:14:59;40.00;;;30.00;;
37169;SDS011;23062;13.952;100.608;2023-04-24T09:19:36;40.00;;;30.00;;
37169;SDS011;23062;13.952;100.608;2023-04-24T09:24:05;40.00;;;30.00;;
37169;SDS011;23062;13.952;100.608;2023-04-24T09:28:32;41.00;;;31.00;;
37169;SDS011;23062;13.952;100.608;2023-04-24T09:33:12;41.00;;;30.00;;
37169;SDS011;23062;13.952;100.608;2023-04-24T09:37:43;42.00;;;31.00;;
37169;SDS011;23062;13.952;100.608;2023-04-24T09:42:11;40.00;;;30.00;;
37169;SDS011;23062;13.952;100.608;2023-04-24T09:46:37;42.00;;;32.00;;
37169;SDS011;23062;13.952;100.608;2023-04-24T09:51:04;39.00;;;29.00;;
37169;SDS011;23062;13.952;100.608;2023-04-24T09:55:45;43.00;;;32.00;;
37169;SDS011;23062;13.952;100.608;2023-04-24T10:00:12;44.00;;;32.00;;
37169;SDS011;23062;13.952;100.608;2023-04-24T10:04:42;47.00;;;29.47;;
37169;SDS011;23062;13.952;100.608;2023-04-24T10:09:11;41.00;;;32.00;;
37169;SDS011;23062;13.952;100.608;2023-04-24T10:13:37;40.00;;;31.00;;
37169;SDS011;23062;13.952;100.608;2023-04-24T10:18:05;39.00;;;29.00;;
37169;SDS011;23062;13.952;100.608;2023-04-24T10:22:32;42.00;;;31.00;;
37169;SDS011;23062;13.952;100.608;2023-04-24T10:26:59;46.00;;;36.00;;
37169;SDS011;23062;13.952;100.608;2023-04-24T10:31:26;41.00;;;32.00;;
37169;SDS011;23062;13.952;100.608;2023-04-24T10:35:53;45.00;;;34.00;;
37169;SDS011;23062;13.952;100.608;2023-04-24T10:40:30;46.00;;;34.00;;
37169;SDS011;23062;13.952;100.608;2023-04-24T10:44:58;40.00;;;29.00;;
37169;SDS011;23062;13.952;100.608;2023-04-24T10:49:28;40.00;;;31.00;;
37169;SDS011;23062;13.952;100.608;2023-04-24T10:53:55;41.00;;;32.00;;
37169;SDS011;23062;13.952;100.608;2023-04-24T10:58:22;42.00;;;32.00;;
37169;SDS011;23062;13.952;100.608;2023-04-24T11:02:49;47.00;;;35.00;;
37169;SDS011;23062;13.952;100.608;2023-04-24T11:07:17;42.00;;;31.00;;
37169;SDS011;23062;13.952;100.608;2023-04-24T11:11:46;36.00;;;28.00;;
37169;SDS011;23062;13.952;100.608;2023-04-24T11:20:55;35.00;;;26.00;;
37169;SDS011;23062;13.952;100.608;2023-04-24T11:25:23;33.00;;;25.00;;
37169;SDS011;23062;13.952;100.608;2023-04-24T11:30:11;29.00;;;21.00;;
37169;SDS011;23062;13.952;100.608;2023-04-24T11:34:58;33.00;;;24.00;;
37169;SDS011;23062;13.952;100.608;2023-04-24T11:39:26;30.00;;;22.00;;
37169;SDS011;23062;13.952;100.608;2023-04-24T11:43:54;32.00;;;23.00;;
37169;SDS011;23062;13.952;100.608;2023-04-24T11:48:21;31.00;;;23.00;;
37169;SDS011;23062;13.952;100.608;2023-04-24T11:52:47;27.00;;;21.00;;
37169;SDS011;23062;13.952;100.608;2023-04-24T11:57:14;27.00;;;21.00;;
37169;SDS011;23062;13.952;100.608;2023-04-24T12:01:45;31.00;;;22.00;;
37169;SDS011;23062;13.952;100.608;2023-04-24T12:06:13;31.00;;;23.00;;
37169;SDS011;23062;13.952;100.608;2023-04-24T12:10:50;31.00;;;23.00;;
37169;SDS011;23062;13.952;100.608;2023-04-24T12:15:23;33.00;;;20.80;;
37169;SDS011;23062;13.952;100.608;2023-04-24T12:19:52;26.00;;;20.00;;
37169;SDS011;23062;13.952;100.608;2023-04-24T12:24:19;25.00;;;18.00;;
37169;SDS011;23062;13.952;100.608;2023-04-24T12:28:46;24.00;;;18.00;;
37169;SDS011;23062;13.952;100.608;2023-04-24T12:33:23;22.00;;;17.00;;
37169;SDS011;23062;13.952;100.608;2023-04-24T12:37:55;24.00;;;18.00;;
37169;SDS011;23062;13.952;100.608;2023-04-24T12:42:25;23.00;;;17.00;;
37169;SDS011;23062;13.952;100.608;2023-04-24T12:46:48;26.00;;;19.00;;
37169;SDS011;23062;13.952;100.608;2023-04-24T12:51:14;27.00;;;20.00;;
37169;SDS011;23062;13.952;100.608;2023-04-24T12:55:44;24.00;;;19.00;;
37169;SDS011;23062;13.952;100.608;2023-04-24T13:00:13;24.00;;;18.00;;
37169;SDS011;23062;13.952;100.608;2023-04-24T13:04:40;27.00;;;21.00;;
37169;SDS011;23062;13.952;100.608;2023-04-24T13:09:08;27.00;;;21.00;;
37169;SDS011;23062;13.952;100.608;2023-04-24T13:13:34;27.00;;;21.00;;
37169;SDS011;23062;13.952;100.608;2023-04-24T13:18:03;27.00;;;20.00;;
37169;SDS011;23062;13.952;100.608;2023-04-24T13:22:29;26.00;;;20.00;;
37169;SDS011;23062;13.952;100.608;2023-04-24T13:26:56;27.00;;;19.00;;
37169;SDS011;23062;13.952;100.608;2023-04-24T13:31:29;25.00;;;19.00;;
37169;SDS011;23062;13.952;100.608;2023-04-24T13:35:55;26.00;;;20.00;;
37169;SDS011;23062;13.952;100.608;2023-04-24T13:40:21;26.00;;;19.00;;
37169;SDS011;23062;13.952;100.608;2023-04-24T13:44:48;28.00;;;21.00;;
37169;SDS011;23062;13.952;100.608;2023-04-24T13:49:15;26.00;;;20.00;;
37169;SDS011;23062;13.952;100.608;2023-04-24T13:53:44;30.00;;;23.00;;
37169;SDS011;23062;13.952;100.608;2023-04-24T13:58:09;27.00;;;21.00;;
37169;SDS011;23062;13.952;100.608;2023-04-24T14:02:35;28.00;;;21.00;;
37169;SDS011;23062;13.952;100.608;2023-04-24T14:07:01;28.00;;;22.00;;
37169;SDS011;23062;13.952;100.608;2023-04-24T14:11:27;29.00;;;22.00;;
37169;SDS011;23062;13.952;100.608;2023-04-24T14:15:56;29.00;;;21.00;;
37169;SDS011;23062;13.952;100.608;2023-04-24T14:20:23;24.00;;;18.00;;
37169;SDS011;23062;13.952;100.608;2023-04-24T14:24:50;28.00;;;21.00;;
37169;SDS011;23062;13.952;100.608;2023-04-24T14:29:17;26.00;;;20.00;;
37169;SDS011;23062;13.952;100.608;2023-04-24T14:33:43;24.00;;;18.00;;
37169;SDS011;23062;13.952;100.608;2023-04-24T14:38:10;28.00;;;20.00;;
37169;SDS011;23062;13.952;100.608;2023-04-24T14:42:39;29.00;;;21.00;;
37169;SDS011;23062;13.952;100.608;2023-04-24T14:47:05;28.00;;;22.00;;
37169;SDS011;23062;13.952;100.608;2023-04-24T14:51:37;25.00;;;19.00;;
37169;SDS011;23062;13.952;100.608;2023-04-24T14:56:03;29.00;;;21.00;;
37169;SDS011;23062;13.952;100.608;2023-04-24T15:00:34;28.00;;;21.00;;
37169;SDS011;23062;13.952;100.608;2023-04-24T15:05:07;29.00;;;22.00;;
37169;SDS011;23062;13.952;100.608;2023-04-24T15:09:33;27.00;;;21.00;;
37169;SDS011;23062;13.952;100.608;2023-04-24T15:14:07;28.00;;;21.00;;
37169;SDS011;23062;13.952;100.608;2023-04-24T15:18:32;29.00;;;21.00;;
37169;SDS011;23062;13.952;100.608;2023-04-24T15:22:57;26.00;;;20.00;;
37169;SDS011;23062;13.952;100.608;2023-04-24T15:27:24;29.00;;;21.00;;
37169;SDS011;23062;13.952;100.608;2023-04-24T15:31:50;30.00;;;22.00;;
37169;SDS011;23062;13.952;100.608;2023-04-24T15:36:19;29.00;;;22.00;;
37169;SDS011;23062;13.952;100.608;2023-04-24T15:40:45;31.00;;;23.00;;
37169;SDS011;23062;13.952;100.608;2023-04-24T15:45:14;29.00;;;22.00;;
37169;SDS011;23062;13.952;100.608;2023-04-24T15:49:39;27.00;;;20.00;;
37169;SDS011;23062;13.952;100.608;2023-04-24T15:54:05;31.00;;;24.00;;
37169;SDS011;23062;13.952;100.608;2023-04-24T15:58:32;27.00;;;19.00;;
37169;SDS011;23062;13.952;100.608;2023-04-24T16:02:57;33.00;;;24.00;;
37169;SDS011;23062;13.952;100.608;2023-04-24T16:07:26;31.00;;;20.80;;
37169;SDS011;23062;13.952;100.608;2023-04-24T16:11:51;33.00;;;24.00;;
37169;SDS011;23062;13.952;100.608;2023-04-24T16:16:20;31.00;;;24.00;;
37169;SDS011;23062;13.952;100.608;2023-04-24T16:20:46;29.00;;;23.00;;
37169;SDS011;23062;13.952;100.608;2023-04-24T16:25:12;32.00;;;24.00;;
37169;SDS011;23062;13.952;100.608;2023-04-24T16:29:37;30.00;;;22.00;;
37169;SDS011;23062;13.952;100.608;2023-04-24T16:34:03;28.00;;;22.00;;
37169;SDS011;23062;13.952;100.608;2023-04-24T16:38:29;28.00;;;21.00;;
37169;SDS011;23062;13.952;100.608;2023-04-24T16:42:55;29.00;;;21.00;;
37169;SDS011;23062;13.952;100.608;2023-04-24T16:47:21;30.00;;;22.00;;
37169;SDS011;23062;13.952;100.608;2023-04-24T16:51:47;29.00;;;21.00;;
37169;SDS011;23062;13.952;100.608;2023-04-24T16:56:13;29.00;;;22.00;;
37169;SDS011;23062;13.952;100.608;2023-04-24T17:00:39;30.00;;;23.00;;
37169;SDS011;23062;13.952;100.608;2023-04-24T17:05:11;26.00;;;20.00;;
37169;SDS011;23062;13.952;100.608;2023-04-24T17:09:37;29.00;;;21.00;;
37169;SDS011;23062;13.952;100.608;2023-04-24T17:14:05;25.00;;;19.00;;
37169;SDS011;23062;13.952;100.608;2023-04-24T17:18:31;27.00;;;20.00;;
37169;SDS011;23062;13.952;100.608;2023-04-24T17:22:57;30.00;;;22.00;;
37169;SDS011;23062;13.952;100.608;2023-04-24T17:27:23;29.00;;;21.00;;
37169;SDS011;23062;13.952;100.608;2023-04-24T17:31:49;27.00;;;21.00;;
37169;SDS011;23062;13.952;100.608;2023-04-24T17:36:15;30.00;;;22.00;;
37169;SDS011;23062;13.952;100.608;2023-04-24T17:40:41;29.00;;;21.00;;
37169;SDS011;23062;13.952;100.608;2023-04-24T17:45:11;30.00;;;23.00;;
37169;SDS011;23062;13.952;100.608;2023-04-24T17:49:39;26.00;;;20.00;;
37169;SDS011;23062;13.952;100.608;2023-04-24T17:54:07;27.00;;;21.00;;
37169;SDS011;23062;13.952;100.608;2023-04-24T17:58:33;30.00;;;22.00;;
37169;SDS011;23062;13.952;100.608;2023-04-24T18:02:59;27.00;;;20.00;;
37169;SDS011;23062;13.952;100.608;2023-04-24T18:07:25;28.00;;;20.00;;
37169;SDS011;23062;13.952;100.608;2023-04-24T18:11:52;26.00;;;20.00;;
37169;SDS011;23062;13.952;100.608;2023-04-24T18:16:21;28.00;;;21.00;;
37169;SDS011;23062;13.952;100.608;2023-04-24T18:30:26;28.00;;;20.00;;
37169;SDS011;23062;13.952;100.608;2023-04-24T18:45:38;27.00;;;19.00;;
37169;SDS011;23062;13.952;100.608;2023-04-24T19:25:00;27.00;;;20.00;;
37169;SDS011;23062;13.952;100.608;2023-04-24T19:34:34;25.00;;;19.00;;
37169;SDS011;23062;13.952;100.608;2023-04-24T19:44:23;25.00;;;19.00;;
37169;SDS011;23062;13.952;100.608;2023-04-24T20:03:52;26.00;;;20.00;;
37169;SDS011;23062;13.952;100.608;2023-04-24T20:08:34;22.00;;;17.00;;
37169;SDS011;23062;13.952;100.608;2023-04-24T20:23:11;22.00;;;16.00;;
37169;SDS011;23062;13.952;100.608;2023-04-24T20:27:56;24.00;;;18.00;;
37169;SDS011;23062;13.952;100.608;2023-04-24T20:47:31;19.00;;;14.00;;
37169;SDS011;23062;13.952;100.608;2023-04-24T21:02:20;23.00;;;18.00;;
37169;SDS011;23062;13.952;100.608;2023-04-24T21:07:05;23.00;;;17.00;;
37169;SDS011;23062;13.952;100.608;2023-04-24T21:11:47;27.00;;;20.00;;
37169;SDS011;23062;13.952;100.608;2023-04-24T21:16:38;22.00;;;16.00;;
37169;SDS011;23062;13.952;100.608;2023-04-24T21:21:43;24.00;;;17.00;;
37169;SDS011;23062;13.952;100.608;2023-04-24T21:26:42;22.00;;;17.00;;
37169;SDS011;23062;13.952;100.608;2023-04-24T21:31:35;27.00;;;20.00;;
37169;SDS011;23062;13.952;100.608;2023-04-24T21:36:36;24.00;;;18.00;;
37169;SDS011;23062;13.952;100.608;2023-04-24T21:46:08;26.00;;;20.00;;
37169;SDS011;23062;13.952;100.608;2023-04-24T21:51:01;25.00;;;18.00;;
37169;SDS011;23062;13.952;100.608;2023-04-24T21:55:46;29.00;;;22.00;;
37169;SDS011;23062;13.952;100.608;2023-04-24T22:10:48;32.00;;;24.00;;
37169;SDS011;23062;13.952;100.608;2023-04-24T22:49:40;41.00;;;32.00;;
37169;SDS011;23062;13.952;100.608;2023-04-24T23:04:02;41.00;;;30.00;;
37169;SDS011;23062;13.952;100.608;2023-04-24T23:13:38;34.00;;;26.00;;
37169;SDS011;23062;13.952;100.608;2023-04-24T23:33:05;35.00;;;26.00;;
37169;SDS011;23062;13.952;100.608;2023-04-24T23:42:55;38.00;;;29.00;;
37169;SDS011;23062;13.952;100.608;2023-04-24T23:47:37;42.00;;;32.00;;
37169;SDS011;23062;13.952;100.608;2023-04-24T23:57:17;37.00;;;29.00;;
